65TA weather

Flying C Ranch Airport
Independence, Texas, United States

Public forecast

Using degrees Fahrenheit for public forecast. Weather courtesy of forecast.io.

METAR (pilot weather report)

Closest report is Brenham Municipal Airport, 8.2 nm (15.2 km) SSW. Retrieved 2019/07/19 07:35 UTC (0 seconds ago):

K11R 190735Z AUTO 15004KT 10SM CLR 26/26 A2998 RMK AO2 T02550255

TAF (pilot weather forecast)

Closest forecast is Easterwood Field, 15.0 nm (27.8 km) N. Retrieved 2019/07/19 06:22 UTC (43 minutes ago):

TAF KCLL 190520Z 1906/2006 17010KT P6SM SCT070 SCT250 FM190900 18005KT P6SM BKN020 FM191600 18011KT P6SM FEW015 SCT035 FM192100 16010G16KT P6SM SCT050 SCT250